sensor_id;sensor_type;location;lat;lon;timestamp;pressure;altitude;pressure_sealevel;temperature;humidity
21900;BME280;11114;50.658;12.704;2022-07-24T00:00:01;96508.81;;;19.52;54.23
21900;BME280;11114;50.658;12.704;2022-07-24T00:02:37;96513.31;;;19.52;53.82
21900;BME280;11114;50.658;12.704;2022-07-24T00:05:04;96513.50;;;19.50;54.13
21900;BME280;11114;50.658;12.704;2022-07-24T00:07:31;96512.69;;;19.50;53.99
21900;BME280;11114;50.658;12.704;2022-07-24T00:09:58;96512.06;;;19.54;53.67
21900;BME280;11114;50.658;12.704;2022-07-24T00:12:25;96504.31;;;19.59;53.66
21900;BME280;11114;50.658;12.704;2022-07-24T00:14:52;96510.41;;;19.66;53.31
21900;BME280;11114;50.658;12.704;2022-07-24T00:17:19;96508.38;;;19.68;53.25
21900;BME280;11114;50.658;12.704;2022-07-24T00:19:45;96505.34;;;19.71;53.15
21900;BME280;11114;50.658;12.704;2022-07-24T00:22:12;96506.97;;;19.72;53.23
21900;BME280;11114;50.658;12.704;2022-07-24T00:24:39;96504.72;;;19.69;53.44
21900;BME280;11114;50.658;12.704;2022-07-24T00:27:06;96512.88;;;19.61;53.59
21900;BME280;11114;50.658;12.704;2022-07-24T00:29:33;96510.63;;;19.58;53.80
21900;BME280;11114;50.658;12.704;2022-07-24T00:31:59;96510.44;;;19.60;53.76
21900;BME280;11114;50.658;12.704;2022-07-24T00:34:26;96507.38;;;19.63;53.91
21900;BME280;11114;50.658;12.704;2022-07-24T00:36:53;96507.97;;;19.65;54.19
21900;BME280;11114;50.658;12.704;2022-07-24T00:39:20;96514.50;;;19.62;54.11
21900;BME280;11114;50.658;12.704;2022-07-24T00:41:47;96515.31;;;19.63;54.29
21900;BME280;11114;50.658;12.704;2022-07-24T00:44:15;96518.56;;;19.58;54.23
21900;BME280;11114;50.658;12.704;2022-07-24T00:46:44;96507.56;;;19.48;54.59
21900;BME280;11114;50.658;12.704;2022-07-24T00:49:15;96512.88;;;19.55;54.99
21900;BME280;11114;50.658;12.704;2022-07-24T00:51:50;96518.19;;;19.61;54.68
21900;BME280;11114;50.658;12.704;2022-07-24T00:54:18;96511.47;;;19.65;54.76
21900;BME280;11114;50.658;12.704;2022-07-24T00:56:47;96522.47;;;19.69;55.00
21900;BME280;11114;50.658;12.704;2022-07-24T00:59:16;96519.81;;;19.69;54.73
21900;BME280;11114;50.658;12.704;2022-07-24T01:01:42;96520.84;;;19.68;54.96
21900;BME280;11114;50.658;12.704;2022-07-24T01:04:09;96522.06;;;19.65;54.91
21900;BME280;11114;50.658;12.704;2022-07-24T01:06:43;96521.00;;;19.66;54.97
21900;BME280;11114;50.658;12.704;2022-07-24T01:09:10;96517.34;;;19.67;54.98
21900;BME280;11114;50.658;12.704;2022-07-24T01:11:38;96514.72;;;19.48;55.48
21900;BME280;11114;50.658;12.704;2022-07-24T01:14:05;96516.13;;;19.44;55.79
21900;BME280;11114;50.658;12.704;2022-07-24T01:16:35;96519.00;;;19.49;55.49
21900;BME280;11114;50.658;12.704;2022-07-24T01:19:03;96514.50;;;19.56;55.53
21900;BME280;11114;50.658;12.704;2022-07-24T01:21:30;96517.97;;;19.63;55.50
21900;BME280;11114;50.658;12.704;2022-07-24T01:23:57;96524.72;;;19.59;55.44
21900;BME280;11114;50.658;12.704;2022-07-24T01:26:24;96519.41;;;19.46;55.75
21900;BME280;11114;50.658;12.704;2022-07-24T01:28:51;96519.81;;;19.49;55.78
21900;BME280;11114;50.658;12.704;2022-07-24T01:31:18;96520.03;;;19.54;55.82
21900;BME280;11114;50.658;12.704;2022-07-24T01:33:45;96524.09;;;19.57;55.66
21900;BME280;11114;50.658;12.704;2022-07-24T01:36:11;96529.16;;;19.58;55.75
21900;BME280;11114;50.658;12.704;2022-07-24T01:38:38;96530.81;;;19.59;55.70
21900;BME280;11114;50.658;12.704;2022-07-24T01:41:05;96527.97;;;19.61;55.52
21900;BME280;11114;50.658;12.704;2022-07-24T01:43:32;96523.28;;;19.50;55.43
21900;BME280;11114;50.658;12.704;2022-07-24T01:45:58;96520.00;;;19.28;55.83
21900;BME280;11114;50.658;12.704;2022-07-24T01:48:25;96527.94;;;19.22;56.58
21900;BME280;11114;50.658;12.704;2022-07-24T01:50:52;96531.41;;;19.22;56.18
21900;BME280;11114;50.658;12.704;2022-07-24T01:53:19;96525.09;;;19.23;55.87
21900;BME280;11114;50.658;12.704;2022-07-24T01:55:45;96521.63;;;19.23;56.04
21900;BME280;11114;50.658;12.704;2022-07-24T01:58:12;96536.09;;;19.20;55.71
21900;BME280;11114;50.658;12.704;2022-07-24T02:00:40;96527.94;;;19.15;55.73
21900;BME280;11114;50.658;12.704;2022-07-24T02:03:06;96526.28;;;19.14;55.56
21900;BME280;11114;50.658;12.704;2022-07-24T02:05:33;96534.00;;;19.09;55.95
21900;BME280;11114;50.658;12.704;2022-07-24T02:08:00;96539.69;;;19.06;55.75
21900;BME280;11114;50.658;12.704;2022-07-24T02:10:28;96535.41;;;19.05;55.75
21900;BME280;11114;50.658;12.704;2022-07-24T02:12:56;96538.44;;;18.90;56.01
21900;BME280;11114;50.658;12.704;2022-07-24T02:15:25;96541.44;;;18.74;56.84
21900;BME280;11114;50.658;12.704;2022-07-24T02:17:54;96534.34;;;18.81;57.11
21900;BME280;11114;50.658;12.704;2022-07-24T02:20:21;96537.63;;;18.89;56.80
21900;BME280;11114;50.658;12.704;2022-07-24T02:22:48;96532.16;;;18.97;56.77
21900;BME280;11114;50.658;12.704;2022-07-24T02:25:15;96522.78;;;18.88;56.69
21900;BME280;11114;50.658;12.704;2022-07-24T02:27:42;96527.22;;;18.81;56.96
21900;BME280;11114;50.658;12.704;2022-07-24T02:30:12;96529.47;;;18.84;57.08
21900;BME280;11114;50.658;12.704;2022-07-24T02:32:40;96536.81;;;18.89;56.84
21900;BME280;11114;50.658;12.704;2022-07-24T02:35:07;96540.81;;;18.72;56.61
21900;BME280;11114;50.658;12.704;2022-07-24T02:37:42;96539.13;;;18.51;56.90
21900;BME280;11114;50.658;12.704;2022-07-24T02:40:10;96532.75;;;18.33;57.16
21900;BME280;11114;50.658;12.704;2022-07-24T02:42:37;96542.44;;;18.26;57.40
21900;BME280;11114;50.658;12.704;2022-07-24T02:45:05;96549.06;;;18.15;58.05
21900;BME280;11114;50.658;12.704;2022-07-24T02:47:32;96547.94;;;18.24;57.94
21900;BME280;11114;50.658;12.704;2022-07-24T02:49:59;96534.38;;;18.40;57.60
21900;BME280;11114;50.658;12.704;2022-07-24T02:52:26;96534.88;;;18.57;57.02
21900;BME280;11114;50.658;12.704;2022-07-24T02:54:52;96537.56;;;18.70;56.55
21900;BME280;11114;50.658;12.704;2022-07-24T02:57:19;96541.44;;;18.74;56.13
21900;BME280;11114;50.658;12.704;2022-07-24T02:59:46;96538.59;;;18.75;56.20
21900;BME280;11114;50.658;12.704;2022-07-24T03:02:17;96537.56;;;18.76;56.10
21900;BME280;11114;50.658;12.704;2022-07-24T03:04:52;96534.34;;;18.81;55.82
21900;BME280;11114;50.658;12.704;2022-07-24T03:07:18;96531.69;;;18.81;55.89
21900;BME280;11114;50.658;12.704;2022-07-24T03:09:45;96533.31;;;18.82;55.90
21900;BME280;11114;50.658;12.704;2022-07-24T03:12:12;96539.44;;;18.82;55.67
21900;BME280;11114;50.658;12.704;2022-07-24T03:14:38;96538.00;;;18.80;55.50
21900;BME280;11114;50.658;12.704;2022-07-24T03:17:05;96544.91;;;18.81;55.59
21900;BME280;11114;50.658;12.704;2022-07-24T03:19:32;96545.94;;;18.80;55.51
21900;BME280;11114;50.658;12.704;2022-07-24T03:21:59;96547.09;;;18.58;56.30
21900;BME280;11114;50.658;12.704;2022-07-24T03:24:25;96542.38;;;18.53;56.31
21900;BME280;11114;50.658;12.704;2022-07-24T03:26:52;96539.94;;;18.52;56.25
21900;BME280;11114;50.658;12.704;2022-07-24T03:29:19;96543.41;;;18.52;56.54
21900;BME280;11114;50.658;12.704;2022-07-24T03:31:46;96533.88;;;18.58;56.32
21900;BME280;11114;50.658;12.704;2022-07-24T03:34:13;96532.66;;;18.60;56.14
21900;BME280;11114;50.658;12.704;2022-07-24T03:36:39;96534.06;;;18.63;56.15
21900;BME280;11114;50.658;12.704;2022-07-24T03:39:06;96539.19;;;18.64;56.06
21900;BME280;11114;50.658;12.704;2022-07-24T03:41:34;96536.69;;;18.56;55.98
21900;BME280;11114;50.658;12.704;2022-07-24T03:44:01;96538.91;;;18.53;56.28
21900;BME280;11114;50.658;12.704;2022-07-24T03:46:28;96537.28;;;18.52;56.21
21900;BME280;11114;50.658;12.704;2022-07-24T03:48:55;96544.78;;;18.48;56.23
21900;BME280;11114;50.658;12.704;2022-07-24T03:51:23;96544.00;;;18.48;56.38
21900;BME280;11114;50.658;12.704;2022-07-24T03:53:52;96539.94;;;18.52;56.38
21900;BME280;11114;50.658;12.704;2022-07-24T03:56:20;96537.53;;;18.57;56.10
21900;BME280;11114;50.658;12.704;2022-07-24T03:58:52;96540.56;;;18.54;56.21
21900;BME280;11114;50.658;12.704;2022-07-24T04:01:19;96550.91;;;18.15;56.76
21900;BME280;11114;50.658;12.704;2022-07-24T04:03:46;96550.31;;;17.86;57.70
21900;BME280;11114;50.658;12.704;2022-07-24T04:06:13;96546.38;;;17.75;58.10
21900;BME280;11114;50.658;12.704;2022-07-24T04:08:40;96547.00;;;17.77;58.53
21900;BME280;11114;50.658;12.704;2022-07-24T04:11:07;96544.84;;;17.87;58.49
21900;BME280;11114;50.658;12.704;2022-07-24T04:13:34;96541.63;;;17.92;58.09
21900;BME280;11114;50.658;12.704;2022-07-24T04:16:06;96552.63;;;17.95;58.38
21900;BME280;11114;50.658;12.704;2022-07-24T04:18:33;96553.03;;;17.99;58.31
21900;BME280;11114;50.658;12.704;2022-07-24T04:21:00;96544.53;;;18.03;58.25
21900;BME280;11114;50.658;12.704;2022-07-24T04:23:27;96544.16;;;18.06;58.02
21900;BME280;11114;50.658;12.704;2022-07-24T04:25:54;96548.59;;;18.06;58.14
21900;BME280;11114;50.658;12.704;2022-07-24T04:28:20;96546.81;;;18.06;58.49
21900;BME280;11114;50.658;12.704;2022-07-24T04:30:47;96547.59;;;18.07;58.28
21900;BME280;11114;50.658;12.704;2022-07-24T04:33:14;96557.97;;;18.08;58.60
21900;BME280;11114;50.658;12.704;2022-07-24T04:35:40;96545.00;;;18.13;58.56
21900;BME280;11114;50.658;12.704;2022-07-24T04:38:07;96552.34;;;18.17;58.73
21900;BME280;11114;50.658;12.704;2022-07-24T04:40:34;96552.44;;;18.24;58.65
21900;BME280;11114;50.658;12.704;2022-07-24T04:43:01;96551.22;;;18.26;58.52
21900;BME280;11114;50.658;12.704;2022-07-24T04:45:28;96547.16;;;18.30;58.91
21900;BME280;11114;50.658;12.704;2022-07-24T04:48:01;96551.03;;;18.34;58.81
21900;BME280;11114;50.658;12.704;2022-07-24T04:50:29;96545.16;;;18.39;58.67
21900;BME280;11114;50.658;12.704;2022-07-24T04:52:56;96550.66;;;18.44;59.13
21900;BME280;11114;50.658;12.704;2022-07-24T04:55:22;96550.91;;;18.49;58.96
21900;BME280;11114;50.658;12.704;2022-07-24T04:57:49;96552.13;;;18.53;59.28
21900;BME280;11114;50.658;12.704;2022-07-24T05:00:16;96551.16;;;18.60;59.50
21900;BME280;11114;50.658;12.704;2022-07-24T05:02:43;96547.53;;;18.68;59.25
21900;BME280;11114;50.658;12.704;2022-07-24T05:05:10;96547.75;;;18.73;59.04
21900;BME280;11114;50.658;12.704;2022-07-24T05:07:37;96547.78;;;18.79;59.14
21900;BME280;11114;50.658;12.704;2022-07-24T05:10:04;96553.09;;;18.86;59.09
21900;BME280;11114;50.658;12.704;2022-07-24T05:12:31;96550.66;;;18.91;58.75
21900;BME280;11114;50.658;12.704;2022-07-24T05:14:58;96557.59;;;18.98;58.69
21900;BME280;11114;50.658;12.704;2022-07-24T05:17:25;96559.66;;;19.02;58.66
21900;BME280;11114;50.658;12.704;2022-07-24T05:19:52;96547.44;;;19.08;58.63
21900;BME280;11114;50.658;12.704;2022-07-24T05:22:19;96554.41;;;19.15;58.54
21900;BME280;11114;50.658;12.704;2022-07-24T05:24:45;96545.47;;;19.23;58.31
21900;BME280;11114;50.658;12.704;2022-07-24T05:27:12;96552.78;;;19.27;58.61
21900;BME280;11114;50.658;12.704;2022-07-24T05:29:39;96544.66;;;19.35;58.58
21900;BME280;11114;50.658;12.704;2022-07-24T05:32:07;96552.63;;;19.42;58.74
21900;BME280;11114;50.658;12.704;2022-07-24T05:34:34;96543.84;;;19.48;58.78
21900;BME280;11114;50.658;12.704;2022-07-24T05:37:07;96547.13;;;19.56;58.57
21900;BME280;11114;50.658;12.704;2022-07-24T05:39:34;96544.28;;;19.64;58.38
21900;BME280;11114;50.658;12.704;2022-07-24T05:42:00;96541.59;;;19.71;58.34
21900;BME280;11114;50.658;12.704;2022-07-24T05:44:27;96538.16;;;19.77;58.25
21900;BME280;11114;50.658;12.704;2022-07-24T05:46:54;96542.22;;;19.79;57.88
21900;BME280;11114;50.658;12.704;2022-07-24T05:49:21;96541.81;;;19.76;57.71
21900;BME280;11114;50.658;12.704;2022-07-24T05:51:48;96545.47;;;19.81;57.29
21900;BME280;11114;50.658;12.704;2022-07-24T05:54:15;96541.78;;;19.88;57.26
21900;BME280;11114;50.658;12.704;2022-07-24T05:56:42;96546.72;;;19.98;57.34
21900;BME280;11114;50.658;12.704;2022-07-24T05:59:09;96550.16;;;19.98;56.58
21900;BME280;11114;50.658;12.704;2022-07-24T06:01:36;96544.88;;;19.98;56.45
21900;BME280;11114;50.658;12.704;2022-07-24T06:04:02;96546.28;;;20.07;55.64
21900;BME280;11114;50.658;12.704;2022-07-24T06:06:29;96540.75;;;20.22;54.54
21900;BME280;11114;50.658;12.704;2022-07-24T06:08:56;96545.63;;;20.31;54.00
21900;BME280;11114;50.658;12.704;2022-07-24T06:11:23;96552.31;;;20.40;54.21
21900;BME280;11114;50.658;12.704;2022-07-24T06:13:51;96556.16;;;20.51;54.54
21900;BME280;11114;50.658;12.704;2022-07-24T06:16:18;96548.59;;;20.54;53.66
21900;BME280;11114;50.658;12.704;2022-07-24T06:18:46;96550.38;;;20.67;53.51
21900;BME280;11114;50.658;12.704;2022-07-24T06:21:13;96547.91;;;20.78;52.75
21900;BME280;11114;50.658;12.704;2022-07-24T06:23:39;96557.09;;;20.82;52.64
21900;BME280;11114;50.658;12.704;2022-07-24T06:26:06;96559.88;;;20.93;51.78
21900;BME280;11114;50.658;12.704;2022-07-24T06:28:33;96549.13;;;21.19;51.80
21900;BME280;11114;50.658;12.704;2022-07-24T06:31:00;96542.28;;;22.51;48.61
21900;BME280;11114;50.658;12.704;2022-07-24T06:33:29;96540.94;;;24.97;44.31
21900;BME280;11114;50.658;12.704;2022-07-24T06:35:59;96530.69;;;27.07;40.22
21900;BME280;11114;50.658;12.704;2022-07-24T06:38:26;96523.47;;;28.23;38.37
21900;BME280;11114;50.658;12.704;2022-07-24T06:40:53;96531.22;;;29.22;36.27
21900;BME280;11114;50.658;12.704;2022-07-24T06:43:19;96532.97;;;29.88;36.35
21900;BME280;11114;50.658;12.704;2022-07-24T06:45:46;96528.94;;;29.65;35.70
21900;BME280;11114;50.658;12.704;2022-07-24T06:48:22;96526.38;;;29.19;36.98
21900;BME280;11114;50.658;12.704;2022-07-24T06:50:53;96533.25;;;29.91;34.82
21900;BME280;11114;50.658;12.704;2022-07-24T06:53:20;96525.81;;;30.91;33.05
21900;BME280;11114;50.658;12.704;2022-07-24T06:55:48;96526.09;;;31.86;31.71
21900;BME280;11114;50.658;12.704;2022-07-24T06:58:20;96528.38;;;33.34;30.52
21900;BME280;11114;50.658;12.704;2022-07-24T07:00:48;96524.63;;;34.36;28.32
21900;BME280;11114;50.658;12.704;2022-07-24T07:03:15;96522.31;;;34.88;26.76
21900;BME280;11114;50.658;12.704;2022-07-24T07:05:44;96530.44;;;34.74;27.59
21900;BME280;11114;50.658;12.704;2022-07-24T07:08:10;96522.78;;;35.79;26.47
21900;BME280;11114;50.658;12.704;2022-07-24T07:10:39;96524.50;;;36.93;25.64
21900;BME280;11114;50.658;12.704;2022-07-24T07:13:07;96521.03;;;37.90;24.67
21900;BME280;11114;50.658;12.704;2022-07-24T07:15:34;96525.31;;;38.42;23.46
21900;BME280;11114;50.658;12.704;2022-07-24T07:18:00;96525.38;;;37.99;22.65
21900;BME280;11114;50.658;12.704;2022-07-24T07:20:27;96533.38;;;37.15;23.28
21900;BME280;11114;50.658;12.704;2022-07-24T07:22:54;96521.34;;;36.77;23.70
21900;BME280;11114;50.658;12.704;2022-07-24T07:25:21;96521.38;;;37.16;24.20
21900;BME280;11114;50.658;12.704;2022-07-24T07:27:49;96517.97;;;38.08;23.49
21900;BME280;11114;50.658;12.704;2022-07-24T07:30:15;96514.78;;;39.15;22.76
21900;BME280;11114;50.658;12.704;2022-07-24T07:32:42;96522.09;;;40.01;21.80
21900;BME280;11114;50.658;12.704;2022-07-24T07:35:10;96517.69;;;40.73;21.24
21900;BME280;11114;50.658;12.704;2022-07-24T07:37:47;96520.09;;;39.49;20.65
21900;BME280;11114;50.658;12.704;2022-07-24T07:40:15;96516.78;;;38.52;22.17
21900;BME280;11114;50.658;12.704;2022-07-24T07:42:41;96512.34;;;39.51;21.78
21900;BME280;11114;50.658;12.704;2022-07-24T07:45:08;96506.66;;;40.17;21.05
21900;BME280;11114;50.658;12.704;2022-07-24T07:47:36;96516.81;;;41.05;20.39
21900;BME280;11114;50.658;12.704;2022-07-24T07:50:04;96516.03;;;41.64;19.52
21900;BME280;11114;50.658;12.704;2022-07-24T07:52:31;96525.84;;;42.04;19.81
21900;BME280;11114;50.658;12.704;2022-07-24T07:54:58;96510.78;;;42.26;18.87
21900;BME280;11114;50.658;12.704;2022-07-24T07:57:25;96514.53;;;41.66;19.72
21900;BME280;11114;50.658;12.704;2022-07-24T08:00:13;96514.84;;;41.77;18.94
21900;BME280;11114;50.658;12.704;2022-07-24T08:02:40;96516.97;;;40.52;19.38
21900;BME280;11114;50.658;12.704;2022-07-24T08:05:07;96513.75;;;40.50;20.32
21900;BME280;11114;50.658;12.704;2022-07-24T08:07:35;96504.22;;;40.68;19.98
21900;BME280;11114;50.658;12.704;2022-07-24T08:10:03;96506.50;;;40.01;20.23
21900;BME280;11114;50.658;12.704;2022-07-24T08:12:36;96510.34;;;39.60;20.75
21900;BME280;11114;50.658;12.704;2022-07-24T08:15:05;96509.47;;;39.67;20.75
21900;BME280;11114;50.658;12.704;2022-07-24T08:17:32;96512.69;;;39.41;20.95
21900;BME280;11114;50.658;12.704;2022-07-24T08:19:59;96513.56;;;39.33;21.66
21900;BME280;11114;50.658;12.704;2022-07-24T08:22:26;96513.63;;;38.87;21.30
21900;BME280;11114;50.658;12.704;2022-07-24T08:24:52;96505.84;;;39.06;21.30
21900;BME280;11114;50.658;12.704;2022-07-24T08:27:19;96511.41;;;39.18;21.22
21900;BME280;11114;50.658;12.704;2022-07-24T08:29:46;96507.44;;;38.70;21.66
21900;BME280;11114;50.658;12.704;2022-07-24T08:32:13;96502.50;;;39.00;20.96
21900;BME280;11114;50.658;12.704;2022-07-24T08:34:40;96503.53;;;38.79;21.43
21900;BME280;11114;50.658;12.704;2022-07-24T08:37:08;96506.88;;;38.30;21.97
21900;BME280;11114;50.658;12.704;2022-07-24T08:39:35;96509.31;;;38.23;21.67
21900;BME280;11114;50.658;12.704;2022-07-24T08:42:02;96501.91;;;38.07;22.26
21900;BME280;11114;50.658;12.704;2022-07-24T08:44:29;96500.97;;;37.94;22.24
21900;BME280;11114;50.658;12.704;2022-07-24T08:46:58;96505.47;;;38.07;22.94
21900;BME280;11114;50.658;12.704;2022-07-24T08:49:26;96503.53;;;38.33;22.35
21900;BME280;11114;50.658;12.704;2022-07-24T08:51:53;96505.75;;;37.72;22.51
21900;BME280;11114;50.658;12.704;2022-07-24T08:54:23;96501.44;;;38.13;22.36
21900;BME280;11114;50.658;12.704;2022-07-24T08:56:50;96505.91;;;38.18;22.13
21900;BME280;11114;50.658;12.704;2022-07-24T08:59:21;96493.75;;;38.07;22.39
21900;BME280;11114;50.658;12.704;2022-07-24T09:01:53;96495.34;;;37.74;22.03
21900;BME280;11114;50.658;12.704;2022-07-24T09:04:41;96499.53;;;37.72;22.24
21900;BME280;11114;50.658;12.704;2022-07-24T09:07:10;96495.00;;;38.43;21.87
21900;BME280;11114;50.658;12.704;2022-07-24T09:09:39;96496.22;;;38.54;21.82
21900;BME280;11114;50.658;12.704;2022-07-24T09:12:17;96495.53;;;38.74;21.82
21900;BME280;11114;50.658;12.704;2022-07-24T09:14:47;96492.72;;;38.45;21.56
21900;BME280;11114;50.658;12.704;2022-07-24T09:17:19;96499.84;;;38.12;22.60
21900;BME280;11114;50.658;12.704;2022-07-24T09:19:59;96497.09;;;37.45;22.18
21900;BME280;11114;50.658;12.704;2022-07-24T09:25:16;96496.44;;;36.53;22.84
21900;BME280;11114;50.658;12.704;2022-07-24T09:27:55;96498.22;;;36.58;23.52
21900;BME280;11114;50.658;12.704;2022-07-24T09:30:36;96492.44;;;36.29;22.01
21900;BME280;11114;50.658;12.704;2022-07-24T09:33:21;96493.94;;;35.91;22.97
21900;BME280;11114;50.658;12.704;2022-07-24T09:35:52;96494.47;;;35.09;24.33
21900;BME280;11114;50.658;12.704;2022-07-24T09:38:24;96493.25;;;34.75;24.32
21900;BME280;11114;50.658;12.704;2022-07-24T09:40:53;96492.81;;;34.54;25.04
21900;BME280;11114;50.658;12.704;2022-07-24T09:43:31;96493.50;;;34.46;24.71
21900;BME280;11114;50.658;12.704;2022-07-24T09:51:02;96489.38;;;34.36;25.37
21900;BME280;11114;50.658;12.704;2022-07-24T09:53:31;96484.97;;;34.40;25.11
21900;BME280;11114;50.658;12.704;2022-07-24T09:56:08;96484.16;;;34.39;25.71
21900;BME280;11114;50.658;12.704;2022-07-24T09:58:40;96489.69;;;34.34;25.84
21900;BME280;11114;50.658;12.704;2022-07-24T10:01:15;96495.84;;;34.08;25.70
21900;BME280;11114;50.658;12.704;2022-07-24T10:03:44;96489.34;;;34.22;25.96
21900;BME280;11114;50.658;12.704;2022-07-24T10:06:13;96488.50;;;34.53;25.64
21900;BME280;11114;50.658;12.704;2022-07-24T10:08:47;96497.06;;;34.60;25.82
21900;BME280;11114;50.658;12.704;2022-07-24T10:11:15;96489.47;;;34.31;26.01
21900;BME280;11114;50.658;12.704;2022-07-24T10:13:48;96479.81;;;34.25;25.80
21900;BME280;11114;50.658;12.704;2022-07-24T10:18:50;96492.09;;;34.36;25.22
21900;BME280;11114;50.658;12.704;2022-07-24T10:21:21;96488.34;;;34.32;25.57
21900;BME280;11114;50.658;12.704;2022-07-24T10:26:36;96480.84;;;34.29;24.54
21900;BME280;11114;50.658;12.704;2022-07-24T10:29:09;96479.50;;;34.13;26.13
21900;BME280;11114;50.658;12.704;2022-07-24T10:31:44;96488.94;;;34.15;25.54
21900;BME280;11114;50.658;12.704;2022-07-24T10:37:15;96479.56;;;34.08;25.76
21900;BME280;11114;50.658;12.704;2022-07-24T10:42:22;96482.94;;;34.00;25.12
21900;BME280;11114;50.658;12.704;2022-07-24T10:45:21;96471.00;;;33.69;24.77
21900;BME280;11114;50.658;12.704;2022-07-24T10:47:54;96472.38;;;33.85;26.03
21900;BME280;11114;50.658;12.704;2022-07-24T10:50:21;96472.56;;;33.88;25.82
21900;BME280;11114;50.658;12.704;2022-07-24T10:52:49;96468.09;;;33.97;26.10
21900;BME280;11114;50.658;12.704;2022-07-24T10:55:34;96460.66;;;34.35;26.35
21900;BME280;11114;50.658;12.704;2022-07-24T11:00:38;96466.94;;;34.17;25.24
21900;BME280;11114;50.658;12.704;2022-07-24T11:03:17;96470.13;;;33.73;25.96
21900;BME280;11114;50.658;12.704;2022-07-24T11:06:07;96468.78;;;33.53;25.14
21900;BME280;11114;50.658;12.704;2022-07-24T11:08:54;96449.50;;;33.59;26.56
21900;BME280;11114;50.658;12.704;2022-07-24T11:11:27;96455.63;;;33.96;26.00
21900;BME280;11114;50.658;12.704;2022-07-24T11:13:55;96447.91;;;34.22;26.25
21900;BME280;11114;50.658;12.704;2022-07-24T11:16:31;96457.19;;;34.16;25.43
21900;BME280;11114;50.658;12.704;2022-07-24T11:26:58;96443.88;;;34.33;25.53
21900;BME280;11114;50.658;12.704;2022-07-24T11:29:28;96448.91;;;34.52;25.76
21900;BME280;11114;50.658;12.704;2022-07-24T11:32:00;96443.50;;;34.52;24.87
21900;BME280;11114;50.658;12.704;2022-07-24T11:34:28;96438.19;;;34.47;25.44
21900;BME280;11114;50.658;12.704;2022-07-24T11:36:56;96436.88;;;34.58;25.32
21900;BME280;11114;50.658;12.704;2022-07-24T11:39:28;96431.22;;;34.55;24.75
21900;BME280;11114;50.658;12.704;2022-07-24T11:41:59;96428.50;;;34.55;25.10
21900;BME280;11114;50.658;12.704;2022-07-24T11:44:27;96436.16;;;34.66;25.03
21900;BME280;11114;50.658;12.704;2022-07-24T11:46:59;96421.94;;;34.74;24.34
21900;BME280;11114;50.658;12.704;2022-07-24T11:49:27;96416.56;;;34.29;24.13
21900;BME280;11114;50.658;12.704;2022-07-24T11:51:54;96414.94;;;34.28;24.43
21900;BME280;11114;50.658;12.704;2022-07-24T11:54:26;96418.75;;;34.54;24.70
21900;BME280;11114;50.658;12.704;2022-07-24T11:56:55;96420.91;;;34.70;23.71
21900;BME280;11114;50.658;12.704;2022-07-24T11:59:29;96425.63;;;34.78;23.77
21900;BME280;11114;50.658;12.704;2022-07-24T12:02:07;96415.84;;;34.91;23.90
21900;BME280;11114;50.658;12.704;2022-07-24T12:04:41;96418.97;;;34.84;24.45
21900;BME280;11114;50.658;12.704;2022-07-24T12:07:18;96419.88;;;34.80;23.52
21900;BME280;11114;50.658;12.704;2022-07-24T12:09:50;96426.81;;;34.86;24.15
21900;BME280;11114;50.658;12.704;2022-07-24T12:15:00;96417.44;;;34.11;24.45
21900;BME280;11114;50.658;12.704;2022-07-24T12:17:29;96415.31;;;33.95;23.80
21900;BME280;11114;50.658;12.704;2022-07-24T12:19:58;96412.66;;;33.90;24.09
21900;BME280;11114;50.658;12.704;2022-07-24T12:22:27;96411.69;;;33.99;23.87
21900;BME280;11114;50.658;12.704;2022-07-24T12:24:56;96402.59;;;34.22;24.69
21900;BME280;11114;50.658;12.704;2022-07-24T12:30:00;96400.22;;;34.34;23.58
21900;BME280;11114;50.658;12.704;2022-07-24T12:32:34;96391.25;;;34.20;23.31
21900;BME280;11114;50.658;12.704;2022-07-24T12:35:10;96399.91;;;34.22;22.95
21900;BME280;11114;50.658;12.704;2022-07-24T12:37:41;96385.63;;;34.17;24.35
21900;BME280;11114;50.658;12.704;2022-07-24T12:40:08;96388.44;;;34.12;24.59
21900;BME280;11114;50.658;12.704;2022-07-24T12:42:35;96375.88;;;34.16;24.71
21900;BME280;11114;50.658;12.704;2022-07-24T12:45:09;96382.34;;;34.20;24.34
21900;BME280;11114;50.658;12.704;2022-07-24T12:48:05;96379.56;;;33.93;23.12
21900;BME280;11114;50.658;12.704;2022-07-24T12:50:31;96377.91;;;33.65;23.73
21900;BME280;11114;50.658;12.704;2022-07-24T12:53:18;96376.13;;;33.74;24.83
21900;BME280;11114;50.658;12.704;2022-07-24T12:56:00;96372.94;;;33.99;24.55
21900;BME280;11114;50.658;12.704;2022-07-24T12:58:27;96363.19;;;33.98;24.53
21900;BME280;11114;50.658;12.704;2022-07-24T13:00:57;96360.59;;;34.06;24.42
21900;BME280;11114;50.658;12.704;2022-07-24T13:03:26;96353.03;;;34.08;24.07
21900;BME280;11114;50.658;12.704;2022-07-24T13:05:56;96364.59;;;33.95;23.67
21900;BME280;11114;50.658;12.704;2022-07-24T13:08:22;96362.25;;;33.75;24.07
21900;BME280;11114;50.658;12.704;2022-07-24T13:10:49;96356.38;;;33.87;24.22
21900;BME280;11114;50.658;12.704;2022-07-24T13:13:16;96361.66;;;33.65;23.53
21900;BME280;11114;50.658;12.704;2022-07-24T13:15:43;96361.16;;;33.45;24.57
21900;BME280;11114;50.658;12.704;2022-07-24T13:18:09;96351.03;;;33.18;24.28
21900;BME280;11114;50.658;12.704;2022-07-24T13:20:36;96355.56;;;33.04;24.66
21900;BME280;11114;50.658;12.704;2022-07-24T13:23:10;96353.38;;;33.06;24.44
21900;BME280;11114;50.658;12.704;2022-07-24T13:25:39;96343.25;;;33.30;24.70
21900;BME280;11114;50.658;12.704;2022-07-24T13:28:08;96341.50;;;33.39;25.06
21900;BME280;11114;50.658;12.704;2022-07-24T13:30:39;96335.38;;;33.47;24.40
21900;BME280;11114;50.658;12.704;2022-07-24T13:33:06;96328.97;;;33.43;24.94